sensor_id;sensor_type;location;lat;lon;timestamp;pressure;altitude;pressure_sealevel;temperature;humidity
75594;BME280;64176;49.156;7.810;2023-04-24T00:01:56;98082.44;;;10.90;79.50
75594;BME280;64176;49.156;7.810;2023-04-24T00:04:41;98074.69;;;10.88;79.16
75594;BME280;64176;49.156;7.810;2023-04-24T00:07:29;98070.38;;;10.89;78.99
75594;BME280;64176;49.156;7.810;2023-04-24T00:10:13;98066.91;;;10.90;78.91
75594;BME280;64176;49.156;7.810;2023-04-24T00:12:57;98064.31;;;10.91;78.71
75594;BME280;64176;49.156;7.810;2023-04-24T00:15:41;98063.47;;;10.89;78.64
75594;BME280;64176;49.156;7.810;2023-04-24T00:18:25;98060.00;;;10.90;78.64
75594;BME280;64176;49.156;7.810;2023-04-24T00:21:11;98054.91;;;10.86;79.15
75594;BME280;64176;49.156;7.810;2023-04-24T00:23:55;98048.13;;;10.79;79.18
75594;BME280;64176;49.156;7.810;2023-04-24T00:26:39;98050.59;;;10.85;79.06
75594;BME280;64176;49.156;7.810;2023-04-24T00:29:23;98051.47;;;10.85;78.98
75594;BME280;64176;49.156;7.810;2023-04-24T00:32:07;98047.16;;;10.84;79.14
75594;BME280;64176;49.156;7.810;2023-04-24T00:34:51;98049.00;;;10.79;79.29
75594;BME280;64176;49.156;7.810;2023-04-24T00:37:38;98048.16;;;10.77;79.96
75594;BME280;64176;49.156;7.810;2023-04-24T00:40:22;98049.84;;;10.80;79.53
75594;BME280;64176;49.156;7.810;2023-04-24T00:43:06;98048.13;;;10.80;79.30
75594;BME280;64176;49.156;7.810;2023-04-24T00:45:50;98046.28;;;10.85;79.47
75594;BME280;64176;49.156;7.810;2023-04-24T00:48:34;98055.03;;;10.78;79.61
75594;BME280;64176;49.156;7.810;2023-04-24T00:51:19;98061.06;;;10.77;79.68
75594;BME280;64176;49.156;7.810;2023-04-24T00:54:06;98043.81;;;10.81;78.70
75594;BME280;64176;49.156;7.810;2023-04-24T00:56:50;98053.19;;;10.86;79.29
75594;BME280;64176;49.156;7.810;2023-04-24T00:59:35;98052.28;;;10.89;78.87
75594;BME280;64176;49.156;7.810;2023-04-24T01:02:21;98048.00;;;10.88;79.11
75594;BME280;64176;49.156;7.810;2023-04-24T01:05:07;98043.72;;;10.85;79.11
75594;BME280;64176;49.156;7.810;2023-04-24T01:07:52;98053.13;;;10.89;79.43
75594;BME280;64176;49.156;7.810;2023-04-24T01:10:36;98045.44;;;10.85;79.78
75594;BME280;64176;49.156;7.810;2023-04-24T01:13:21;98046.22;;;10.91;79.29
75594;BME280;64176;49.156;7.810;2023-04-24T01:16:05;98045.38;;;10.91;79.23
75594;BME280;64176;49.156;7.810;2023-04-24T01:18:51;98042.75;;;10.92;79.29
75594;BME280;64176;49.156;7.810;2023-04-24T01:21:37;98033.34;;;10.87;79.49
75594;BME280;64176;49.156;7.810;2023-04-24T01:24:21;98042.81;;;10.88;79.84
75594;BME280;64176;49.156;7.810;2023-04-24T01:27:05;98045.47;;;10.83;80.10
75594;BME280;64176;49.156;7.810;2023-04-24T01:29:49;98047.09;;;10.90;79.61
75594;BME280;64176;49.156;7.810;2023-04-24T01:32:36;98040.34;;;10.82;79.62
75594;BME280;64176;49.156;7.810;2023-04-24T01:35:21;98041.19;;;10.82;79.90
75594;BME280;64176;49.156;7.810;2023-04-24T01:38:05;98028.34;;;10.78;79.22
75594;BME280;64176;49.156;7.810;2023-04-24T01:40:50;98049.75;;;10.86;79.58
75594;BME280;64176;49.156;7.810;2023-04-24T01:43:35;98038.56;;;10.84;79.97
75594;BME280;64176;49.156;7.810;2023-04-24T01:46:23;98041.28;;;10.76;80.50
75594;BME280;64176;49.156;7.810;2023-04-24T01:49:08;98033.53;;;10.75;80.11
75594;BME280;64176;49.156;7.810;2023-04-24T01:51:52;98032.69;;;10.74;80.35
75594;BME280;64176;49.156;7.810;2023-04-24T01:54:36;98043.84;;;10.76;80.39
75594;BME280;64176;49.156;7.810;2023-04-24T01:57:20;98045.56;;;10.77;80.30
75594;BME280;64176;49.156;7.810;2023-04-24T02:00:06;98048.16;;;10.77;80.75
75594;BME280;64176;49.156;7.810;2023-04-24T02:02:57;98067.22;;;10.70;81.83
75594;BME280;64176;49.156;7.810;2023-04-24T02:05:44;98084.69;;;10.50;83.71
75594;BME280;64176;49.156;7.810;2023-04-24T02:08:31;98102.03;;;9.61;83.76
75594;BME280;64176;49.156;7.810;2023-04-24T02:11:15;98122.28;;;8.98;83.85
75594;BME280;64176;49.156;7.810;2023-04-24T02:13:59;98112.97;;;8.80;84.99
75594;BME280;64176;49.156;7.810;2023-04-24T02:16:43;98118.03;;;8.91;85.43
75594;BME280;64176;49.156;7.810;2023-04-24T02:19:27;98118.22;;;8.60;85.66
75594;BME280;64176;49.156;7.810;2023-04-24T02:22:12;98124.25;;;8.61;86.54
75594;BME280;64176;49.156;7.810;2023-04-24T02:24:56;98131.06;;;8.66;86.10
75594;BME280;64176;49.156;7.810;2023-04-24T02:27:39;98136.22;;;8.62;87.01
75594;BME280;64176;49.156;7.810;2023-04-24T02:30:24;98141.25;;;8.85;87.40
75594;BME280;64176;49.156;7.810;2023-04-24T02:33:08;98131.06;;;8.66;87.71
75594;BME280;64176;49.156;7.810;2023-04-24T02:35:52;98154.25;;;8.68;87.59
75594;BME280;64176;49.156;7.810;2023-04-24T02:38:35;98143.06;;;8.72;88.55
75594;BME280;64176;49.156;7.810;2023-04-24T02:41:19;98142.22;;;8.64;88.04
75594;BME280;64176;49.156;7.810;2023-04-24T02:44:03;98135.41;;;8.58;89.37
75594;BME280;64176;49.156;7.810;2023-04-24T02:46:47;98136.22;;;8.68;89.32
75594;BME280;64176;49.156;7.810;2023-04-24T02:49:31;98138.75;;;8.74;89.44
75594;BME280;64176;49.156;7.810;2023-04-24T02:52:16;98149.94;;;8.68;89.94
75594;BME280;64176;49.156;7.810;2023-04-24T02:55:00;98141.38;;;8.63;88.42
75594;BME280;64176;49.156;7.810;2023-04-24T02:57:45;98141.41;;;8.54;89.00
75594;BME280;64176;49.156;7.810;2023-04-24T03:00:29;98158.53;;;8.70;88.94
75594;BME280;64176;49.156;7.810;2023-04-24T03:03:14;98156.00;;;8.61;88.80
75594;BME280;64176;49.156;7.810;2023-04-24T03:05:59;98151.72;;;8.59;88.81
75594;BME280;64176;49.156;7.810;2023-04-24T03:08:46;98150.75;;;8.78;88.77
75594;BME280;64176;49.156;7.810;2023-04-24T03:11:30;98155.03;;;8.82;89.04
75594;BME280;64176;49.156;7.810;2023-04-24T03:14:14;98154.22;;;8.69;88.67
75594;BME280;64176;49.156;7.810;2023-04-24T03:16:58;98162.88;;;8.56;89.65
75594;BME280;64176;49.156;7.810;2023-04-24T03:19:44;98165.44;;;8.53;89.21
75594;BME280;64176;49.156;7.810;2023-04-24T03:22:30;98174.13;;;8.35;89.48
75594;BME280;64176;49.156;7.810;2023-04-24T03:25:16;98164.69;;;8.33;89.71
75594;BME280;64176;49.156;7.810;2023-04-24T03:28:01;98162.09;;;8.36;89.99
75594;BME280;64176;49.156;7.810;2023-04-24T03:30:56;98162.09;;;8.33;89.93
75594;BME280;64176;49.156;7.810;2023-04-24T03:33:46;98162.97;;;8.32;88.60
75594;BME280;64176;49.156;7.810;2023-04-24T03:36:30;98174.13;;;8.38;88.64
75594;BME280;64176;49.156;7.810;2023-04-24T03:39:18;98177.53;;;8.28;88.32
75594;BME280;64176;49.156;7.810;2023-04-24T03:42:09;98180.97;;;8.20;88.94
75594;BME280;64176;49.156;7.810;2023-04-24T03:45:03;98179.25;;;8.19;89.33
75594;BME280;64176;49.156;7.810;2023-04-24T03:47:52;98169.00;;;8.14;89.05
75594;BME280;64176;49.156;7.810;2023-04-24T03:50:36;98188.72;;;8.15;89.39
75594;BME280;64176;49.156;7.810;2023-04-24T03:53:21;98193.00;;;8.13;88.95
75594;BME280;64176;49.156;7.810;2023-04-24T03:56:07;98184.47;;;8.02;89.41
75594;BME280;64176;49.156;7.810;2023-04-24T03:58:52;98193.00;;;8.24;88.96
75594;BME280;64176;49.156;7.810;2023-04-24T04:01:36;98188.69;;;8.26;88.64
75594;BME280;64176;49.156;7.810;2023-04-24T04:04:33;98199.88;;;8.10;90.03
75594;BME280;64176;49.156;7.810;2023-04-24T04:07:17;98196.44;;;8.08;90.41
75594;BME280;64176;49.156;7.810;2023-04-24T04:10:02;98196.41;;;8.18;90.50
75594;BME280;64176;49.156;7.810;2023-04-24T04:12:47;98194.66;;;8.31;88.56
75594;BME280;64176;49.156;7.810;2023-04-24T04:15:34;98206.72;;;8.36;89.25
75594;BME280;64176;49.156;7.810;2023-04-24T04:18:18;98202.44;;;8.25;89.36
75594;BME280;64176;49.156;7.810;2023-04-24T04:21:02;98211.00;;;8.24;89.82
75594;BME280;64176;49.156;7.810;2023-04-24T04:23:46;98207.56;;;8.37;88.70
75594;BME280;64176;49.156;7.810;2023-04-24T04:26:37;98210.97;;;8.42;88.72
75594;BME280;64176;49.156;7.810;2023-04-24T04:29:24;98212.69;;;8.40;89.03
75594;BME280;64176;49.156;7.810;2023-04-24T04:32:10;98205.00;;;8.25;89.53
75594;BME280;64176;49.156;7.810;2023-04-24T04:34:54;98212.72;;;8.10;90.62
75594;BME280;64176;49.156;7.810;2023-04-24T04:37:40;98217.91;;;8.03;91.06
75594;BME280;64176;49.156;7.810;2023-04-24T04:40:34;98221.31;;;8.13;91.93
75594;BME280;64176;49.156;7.810;2023-04-24T04:43:23;98224.75;;;8.14;89.98
75594;BME280;64176;49.156;7.810;2023-04-24T04:46:10;98214.41;;;8.30;89.12
75594;BME280;64176;49.156;7.810;2023-04-24T04:48:59;98222.16;;;8.35;88.74
75594;BME280;64176;49.156;7.810;2023-04-24T04:51:43;98235.00;;;8.47;88.98
75594;BME280;64176;49.156;7.810;2023-04-24T04:54:30;98235.03;;;8.33;89.82
75594;BME280;64176;49.156;7.810;2023-04-24T04:57:15;98218.72;;;8.33;90.08
75594;BME280;64176;49.156;7.810;2023-04-24T04:59:59;98240.16;;;8.47;89.66
75594;BME280;64176;49.156;7.810;2023-04-24T05:02:57;98243.59;;;8.43;90.13
75594;BME280;64176;49.156;7.810;2023-04-24T05:05:43;98245.31;;;8.50;88.86
75594;BME280;64176;49.156;7.810;2023-04-24T05:08:31;98247.00;;;8.59;88.13
75594;BME280;64176;49.156;7.810;2023-04-24T05:11:16;98263.28;;;8.62;88.52
75594;BME280;64176;49.156;7.810;2023-04-24T05:14:00;98247.88;;;8.39;89.23
75594;BME280;64176;49.156;7.810;2023-04-24T05:16:54;98263.34;;;8.36;89.17
75594;BME280;64176;49.156;7.810;2023-04-24T05:19:43;98267.66;;;8.36;88.17
75594;BME280;64176;49.156;7.810;2023-04-24T05:22:31;98265.91;;;8.44;88.48
75594;BME280;64176;49.156;7.810;2023-04-24T05:25:18;98272.78;;;8.50;88.25
75594;BME280;64176;49.156;7.810;2023-04-24T05:28:15;98270.19;;;8.47;87.69
75594;BME280;64176;49.156;7.810;2023-04-24T05:31:02;98279.63;;;8.46;87.62
75594;BME280;64176;49.156;7.810;2023-04-24T05:33:46;98287.34;;;8.52;86.28
75594;BME280;64176;49.156;7.810;2023-04-24T05:36:31;98276.19;;;8.41;85.87
75594;BME280;64176;49.156;7.810;2023-04-24T05:39:15;98283.06;;;8.60;84.39
75594;BME280;64176;49.156;7.810;2023-04-24T05:42:00;98289.03;;;8.71;84.76
75594;BME280;64176;49.156;7.810;2023-04-24T05:44:45;98295.84;;;8.85;83.98
75594;BME280;64176;49.156;7.810;2023-04-24T05:47:29;98295.84;;;8.91;82.79
75594;BME280;64176;49.156;7.810;2023-04-24T05:50:13;98288.97;;;8.91;81.66
75594;BME280;64176;49.156;7.810;2023-04-24T05:52:57;98288.97;;;8.87;81.62
75594;BME280;64176;49.156;7.810;2023-04-24T05:55:50;98301.03;;;8.82;81.96
75594;BME280;64176;49.156;7.810;2023-04-24T05:58:34;98295.00;;;8.75;82.65
75594;BME280;64176;49.156;7.810;2023-04-24T06:01:19;98299.31;;;8.74;81.58
75594;BME280;64176;49.156;7.810;2023-04-24T06:04:09;98309.59;;;8.77;82.34
75594;BME280;64176;49.156;7.810;2023-04-24T06:06:54;98317.34;;;8.74;81.89
75594;BME280;64176;49.156;7.810;2023-04-24T06:09:40;98317.34;;;8.68;81.21
75594;BME280;64176;49.156;7.810;2023-04-24T06:12:25;98336.25;;;8.72;81.14
75594;BME280;64176;49.156;7.810;2023-04-24T06:15:18;98355.16;;;8.60;82.76
75594;BME280;64176;49.156;7.810;2023-04-24T06:18:25;98373.19;;;8.31;85.52
75594;BME280;64176;49.156;7.810;2023-04-24T06:21:12;98379.13;;;8.01;86.10
75594;BME280;64176;49.156;7.810;2023-04-24T06:23:56;98378.19;;;7.64;85.38
75594;BME280;64176;49.156;7.810;2023-04-24T06:26:41;98365.34;;;7.69;86.28
75594;BME280;64176;49.156;7.810;2023-04-24T06:29:25;98378.91;;;7.24;87.32
75594;BME280;64176;49.156;7.810;2023-04-24T06:32:09;98385.84;;;7.46;88.46
75594;BME280;64176;49.156;7.810;2023-04-24T06:34:53;98382.44;;;7.49;87.87
75594;BME280;64176;49.156;7.810;2023-04-24T06:37:37;98375.50;;;7.26;88.37
75594;BME280;64176;49.156;7.810;2023-04-24T06:40:22;98389.28;;;7.51;87.71
75594;BME280;64176;49.156;7.810;2023-04-24T06:43:06;98387.59;;;7.49;88.70
75594;BME280;64176;49.156;7.810;2023-04-24T06:45:50;98375.63;;;7.61;87.94
75594;BME280;64176;49.156;7.810;2023-04-24T06:48:34;98391.97;;;7.80;88.63
75594;BME280;64176;49.156;7.810;2023-04-24T06:51:18;98391.97;;;7.83;87.85
75594;BME280;64176;49.156;7.810;2023-04-24T06:54:04;98397.97;;;7.87;88.29
75594;BME280;64176;49.156;7.810;2023-04-24T06:56:49;98391.94;;;7.71;89.22
75594;BME280;64176;49.156;7.810;2023-04-24T06:59:34;98396.19;;;7.61;89.69
75594;BME280;64176;49.156;7.810;2023-04-24T07:02:18;98392.78;;;7.68;91.29
75594;BME280;64176;49.156;7.810;2023-04-24T07:05:02;98406.47;;;7.60;91.22
75594;BME280;64176;49.156;7.810;2023-04-24T07:07:47;98404.81;;;7.85;90.07
75594;BME280;64176;49.156;7.810;2023-04-24T07:10:31;98392.03;;;8.90;86.23
75594;BME280;64176;49.156;7.810;2023-04-24T07:13:15;98392.88;;;8.93;85.87
75594;BME280;64176;49.156;7.810;2023-04-24T07:16:02;98397.22;;;8.71;86.65
75594;BME280;64176;49.156;7.810;2023-04-24T07:18:46;98401.47;;;8.74;86.66
75594;BME280;64176;49.156;7.810;2023-04-24T07:21:30;98402.34;;;8.65;87.11
75594;BME280;64176;49.156;7.810;2023-04-24T07:24:15;98399.81;;;8.49;87.38
75594;BME280;64176;49.156;7.810;2023-04-24T07:26:59;98404.06;;;8.42;87.10
75594;BME280;64176;49.156;7.810;2023-04-24T07:29:45;98402.34;;;8.53;85.13
75594;BME280;64176;49.156;7.810;2023-04-24T07:32:34;98416.94;;;8.51;84.79
75594;BME280;64176;49.156;7.810;2023-04-24T07:35:19;98412.66;;;8.58;84.28
75594;BME280;64176;49.156;7.810;2023-04-24T07:38:05;98422.97;;;8.61;84.94
75594;BME280;64176;49.156;7.810;2023-04-24T07:40:49;98418.69;;;8.48;84.48
75594;BME280;64176;49.156;7.810;2023-04-24T07:43:34;98425.56;;;8.59;84.44
75594;BME280;64176;49.156;7.810;2023-04-24T07:46:18;98411.81;;;8.59;84.75
75594;BME280;64176;49.156;7.810;2023-04-24T07:49:04;98426.38;;;8.54;83.38
75594;BME280;64176;49.156;7.810;2023-04-24T07:51:51;98419.53;;;8.50;83.88
75594;BME280;64176;49.156;7.810;2023-04-24T07:54:38;98431.53;;;8.75;81.74
75594;BME280;64176;49.156;7.810;2023-04-24T07:57:22;98433.25;;;8.85;81.96
75594;BME280;64176;49.156;7.810;2023-04-24T08:00:06;98428.09;;;8.87;80.78
75594;BME280;64176;49.156;7.810;2023-04-24T08:02:55;98435.78;;;9.16;79.74
75594;BME280;64176;49.156;7.810;2023-04-24T08:05:40;98423.75;;;9.13;79.92
75594;BME280;64176;49.156;7.810;2023-04-24T08:08:24;98439.09;;;9.60;79.87
75594;BME280;64176;49.156;7.810;2023-04-24T08:11:08;98431.91;;;10.26;77.84
75594;BME280;64176;49.156;7.810;2023-04-24T08:13:52;98435.72;;;10.83;76.32
75594;BME280;64176;49.156;7.810;2023-04-24T08:16:36;98436.06;;;10.47;77.08
75594;BME280;64176;49.156;7.810;2023-04-24T08:19:20;98440.56;;;10.08;74.74
75594;BME280;64176;49.156;7.810;2023-04-24T08:22:05;98446.63;;;10.01;75.39
75594;BME280;64176;49.156;7.810;2023-04-24T08:24:49;98448.38;;;9.96;75.60
75594;BME280;64176;49.156;7.810;2023-04-24T08:27:32;98451.91;;;9.75;75.52
75594;BME280;64176;49.156;7.810;2023-04-24T08:30:19;98461.50;;;9.47;74.09
75594;BME280;64176;49.156;7.810;2023-04-24T08:33:04;98464.06;;;9.43;75.01
75594;BME280;64176;49.156;7.810;2023-04-24T08:35:48;98477.00;;;9.19;74.86
75594;BME280;64176;49.156;7.810;2023-04-24T08:38:33;98478.72;;;9.26;75.54
75594;BME280;64176;49.156;7.810;2023-04-24T08:41:18;98480.50;;;9.05;76.20
75594;BME280;64176;49.156;7.810;2023-04-24T08:44:03;98494.22;;;8.95;75.92
75594;BME280;64176;49.156;7.810;2023-04-24T08:46:50;98489.06;;;9.01;75.75
75594;BME280;64176;49.156;7.810;2023-04-24T08:49:36;98486.47;;;9.23;76.53
75594;BME280;64176;49.156;7.810;2023-04-24T08:52:20;98486.47;;;9.10;75.66
75594;BME280;64176;49.156;7.810;2023-04-24T08:55:05;98476.13;;;9.30;75.00
75594;BME280;64176;49.156;7.810;2023-04-24T08:57:51;98484.75;;;9.23;74.00
75594;BME280;64176;49.156;7.810;2023-04-24T09:00:40;98493.28;;;9.53;73.01
75594;BME280;64176;49.156;7.810;2023-04-24T09:03:31;98488.94;;;9.70;74.29
75594;BME280;64176;49.156;7.810;2023-04-24T09:06:18;98489.78;;;9.64;73.49
75594;BME280;64176;49.156;7.810;2023-04-24T09:09:03;98488.97;;;9.55;73.21
75594;BME280;64176;49.156;7.810;2023-04-24T09:11:51;98482.09;;;9.60;72.39
75594;BME280;64176;49.156;7.810;2023-04-24T09:14:37;98489.78;;;9.72;71.51
75594;BME280;64176;49.156;7.810;2023-04-24T09:17:26;98476.81;;;9.84;70.10
75594;BME280;64176;49.156;7.810;2023-04-24T09:20:12;98488.03;;;9.77;71.04
75594;BME280;64176;49.156;7.810;2023-04-24T09:22:59;98482.91;;;9.65;70.16
75594;BME280;64176;49.156;7.810;2023-04-24T09:25:43;98488.94;;;9.65;70.92
75594;BME280;64176;49.156;7.810;2023-04-24T09:31:18;98507.91;;;9.41;73.85
75594;BME280;64176;49.156;7.810;2023-04-24T09:34:04;98519.13;;;9.25;76.43
75594;BME280;64176;49.156;7.810;2023-04-24T09:36:52;98520.81;;;9.31;77.09
75594;BME280;64176;49.156;7.810;2023-04-24T09:39:39;98520.00;;;8.98;78.82
75594;BME280;64176;49.156;7.810;2023-04-24T09:42:25;98526.88;;;8.92;79.13
75594;BME280;64176;49.156;7.810;2023-04-24T09:45:12;98532.00;;;9.08;80.13
75594;BME280;64176;49.156;7.810;2023-04-24T09:47:57;98537.19;;;9.05;78.92
75594;BME280;64176;49.156;7.810;2023-04-24T09:50:45;98541.44;;;9.17;79.75
75594;BME280;64176;49.156;7.810;2023-04-24T09:53:32;98537.19;;;9.15;79.75
75594;BME280;64176;49.156;7.810;2023-04-24T09:56:25;98532.03;;;8.93;79.88
75594;BME280;64176;49.156;7.810;2023-04-24T09:59:09;98550.03;;;9.18;79.50
75594;BME280;64176;49.156;7.810;2023-04-24T10:01:53;98539.75;;;9.15;80.25
75594;BME280;64176;49.156;7.810;2023-04-24T10:04:37;98540.63;;;9.27;79.32
75594;BME280;64176;49.156;7.810;2023-04-24T10:07:22;98543.16;;;9.30;78.88
75594;BME280;64176;49.156;7.810;2023-04-24T10:10:09;98539.75;;;9.11;78.57
75594;BME280;64176;49.156;7.810;2023-04-24T10:12:54;98548.31;;;9.29;78.47
75594;BME280;64176;49.156;7.810;2023-04-24T10:15:40;98554.38;;;9.28;77.59
75594;BME280;64176;49.156;7.810;2023-04-24T10:18:25;98555.19;;;9.31;76.86
75594;BME280;64176;49.156;7.810;2023-04-24T10:21:10;98560.34;;;9.30;77.74
75594;BME280;64176;49.156;7.810;2023-04-24T10:23:54;98574.13;;;9.04;77.03
75594;BME280;64176;49.156;7.810;2023-04-24T10:26:38;98581.84;;;9.07;78.31
75594;BME280;64176;49.156;7.810;2023-04-24T10:29:23;98590.44;;;9.12;79.35
75594;BME280;64176;49.156;7.810;2023-04-24T10:32:08;98580.97;;;8.87;79.15
75594;BME280;64176;49.156;7.810;2023-04-24T10:34:55;98593.88;;;8.93;78.61
75594;BME280;64176;49.156;7.810;2023-04-24T10:37:44;98599.88;;;8.95;78.75
75594;BME280;64176;49.156;7.810;2023-04-24T10:40:34;98604.16;;;8.81;79.36
75594;BME280;64176;49.156;7.810;2023-04-24T10:43:18;98605.03;;;9.00;78.57
75594;BME280;64176;49.156;7.810;2023-04-24T10:46:06;98597.28;;;8.95;78.97
75594;BME280;64176;49.156;7.810;2023-04-24T10:48:54;98605.06;;;9.15;79.68
75594;BME280;64176;49.156;7.810;2023-04-24T10:51:49;98604.22;;;9.27;78.11
75594;BME280;64176;49.156;7.810;2023-04-24T10:54:41;98604.22;;;9.27;77.79
75594;BME280;64176;49.156;7.810;2023-04-24T10:57:27;98597.31;;;9.33;78.55
75594;BME280;64176;49.156;7.810;2023-04-24T11:00:24;98607.63;;;9.21;76.60
75594;BME280;64176;49.156;7.810;2023-04-24T11:03:28;98606.78;;;9.37;76.32
75594;BME280;64176;49.156;7.810;2023-04-24T11:06:12;98603.34;;;9.49;75.52
75594;BME280;64176;49.156;7.810;2023-04-24T11:09:09;98611.06;;;9.66;73.33
75594;BME280;64176;49.156;7.810;2023-04-24T11:12:04;98617.06;;;9.63;74.02
75594;BME280;64176;49.156;7.810;2023-04-24T11:17:42;98616.19;;;9.90;72.09
75594;BME280;64176;49.156;7.810;2023-04-24T11:20:26;98613.59;;;9.89;72.50
75594;BME280;64176;49.156;7.810;2023-04-24T11:23:12;98617.88;;;9.85;71.94
75594;BME280;64176;49.156;7.810;2023-04-24T11:26:31;98623.91;;;9.84;71.98
75594;BME280;64176;49.156;7.810;2023-04-24T11:29:21;98623.97;;;9.69;71.73
75594;BME280;64176;49.156;7.810;2023-04-24T11:35:21;98623.97;;;9.47;72.58
75594;BME280;64176;49.156;7.810;2023-04-24T11:38:09;98634.28;;;9.54;71.58
75594;BME280;64176;49.156;7.810;2023-04-24T11:40:56;98633.38;;;9.74;71.71
75594;BME280;64176;49.156;7.810;2023-04-24T11:43:41;98629.97;;;9.66;71.07
75594;BME280;64176;49.156;7.810;2023-04-24T11:46:30;98620.50;;;9.74;71.58
75594;BME280;64176;49.156;7.810;2023-04-24T11:49:15;98622.19;;;9.94;71.54
75594;BME280;64176;49.156;7.810;2023-04-24T11:52:00;98635.09;;;9.84;70.45
75594;BME280;64176;49.156;7.810;2023-04-24T11:54:49;98626.53;;;9.78;69.52
75594;BME280;64176;49.156;7.810;2023-04-24T11:57:36;98634.19;;;10.08;69.12
75594;BME280;64176;49.156;7.810;2023-04-24T12:00:24;98629.88;;;10.27;68.98
75594;BME280;64176;49.156;7.810;2023-04-24T12:03:10;98629.84;;;10.38;69.06
75594;BME280;64176;49.156;7.810;2023-04-24T12:06:09;98632.38;;;10.42;67.92
75594;BME280;64176;49.156;7.810;2023-04-24T12:08:53;98609.03;;;10.68;67.83
75594;BME280;64176;49.156;7.810;2023-04-24T12:11:55;98620.25;;;10.61;66.49
75594;BME280;64176;49.156;7.810;2023-04-24T12:14:51;98611.59;;;10.67;67.57
75594;BME280;64176;49.156;7.810;2023-04-24T12:17:41;98603.75;;;10.83;66.77
75594;BME280;64176;49.156;7.810;2023-04-24T12:20:29;98613.22;;;10.89;65.48
75594;BME280;64176;49.156;7.810;2023-04-24T12:23:14;98598.34;;;11.17;65.06
75594;BME280;64176;49.156;7.810;2023-04-24T12:26:00;98576.84;;;11.10;64.28
75594;BME280;64176;49.156;7.810;2023-04-24T12:28:49;98610.38;;;11.25;64.69
75594;BME280;64176;49.156;7.810;2023-04-24T12:31:33;98613.84;;;11.23;64.85
75594;BME280;64176;49.156;7.810;2023-04-24T12:34:20;98611.34;;;11.11;64.43
75594;BME280;64176;49.156;7.810;2023-04-24T12:37:11;98618.25;;;11.06;63.90
75594;BME280;64176;49.156;7.810;2023-04-24T12:42:46;98605.94;;;11.38;64.59
75594;BME280;64176;49.156;7.810;2023-04-24T12:45:34;98606.06;;;11.23;64.25
75594;BME280;64176;49.156;7.810;2023-04-24T12:48:18;98605.25;;;11.16;63.87
75594;BME280;64176;49.156;7.810;2023-04-24T12:51:03;98605.13;;;11.33;63.71
75594;BME280;64176;49.156;7.810;2023-04-24T12:53:47;98604.28;;;11.31;62.26
75594;BME280;64176;49.156;7.810;2023-04-24T12:56:31;98600.06;;;11.18;62.46
75594;BME280;64176;49.156;7.810;2023-04-24T12:59:15;98597.28;;;11.45;62.81
75594;BME280;64176;49.156;7.810;2023-04-24T13:01:58;98602.69;;;11.15;62.65
75594;BME280;64176;49.156;7.810;2023-04-24T13:04:46;98608.75;;;11.06;63.56
75594;BME280;64176;49.156;7.810;2023-04-24T13:07:31;98597.59;;;11.03;63.36
75594;BME280;64176;49.156;7.810;2023-04-24T13:10:15;98612.28;;;10.98;63.31
75594;BME280;64176;49.156;7.810;2023-04-24T13:12:59;98610.56;;;11.00;62.43
75594;BME280;64176;49.156;7.810;2023-04-24T13:15:43;98608.44;;;11.49;62.25
75594;BME280;64176;49.156;7.810;2023-04-24T13:18:27;98602.38;;;11.53;62.12
75594;BME280;64176;49.156;7.810;2023-04-24T13:21:13;98607.41;;;11.68;62.74
75594;BME280;64176;49.156;7.810;2023-04-24T13:23:58;98599.69;;;11.62;61.45
75594;BME280;64176;49.156;7.810;2023-04-24T13:26:45;98585.63;;;11.92;61.55
75594;BME280;64176;49.156;7.810;2023-04-24T13:29:31;98597.00;;;11.77;59.62
75594;BME280;64176;49.156;7.810;2023-04-24T13:32:15;98593.44;;;11.87;60.72
75594;BME280;64176;49.156;7.810;2023-04-24T13:34:59;98597.06;;;11.65;60.74
75594;BME280;64176;49.156;7.810;2023-04-24T13:37:43;98586.25;;;12.12;60.57
75594;BME280;64176;49.156;7.810;2023-04-24T13:40:30;98590.88;;;11.83;59.21
75594;BME280;64176;49.156;7.810;2023-04-24T13:43:18;98584.75;;;11.93;59.43
75594;BME280;64176;49.156;7.810;2023-04-24T13:46:05;98578.59;;;12.03;58.52
75594;BME280;64176;49.156;7.810;2023-04-24T13:48:51;98580.28;;;12.04;58.27
75594;BME280;64176;49.156;7.810;2023-04-24T13:51:39;98578.66;;;11.97;58.66
75594;BME280;64176;49.156;7.810;2023-04-24T13:54:24;98577.53;;;12.19;58.80
75594;BME280;64176;49.156;7.810;2023-04-24T13:57:09;98580.22;;;12.13;58.59
75594;BME280;64176;49.156;7.810;2023-04-24T13:59:55;98578.84;;;11.80;59.08
75594;BME280;64176;49.156;7.810;2023-04-24T14:02:45;98579.53;;;11.94;60.78
75594;BME280;64176;49.156;7.810;2023-04-24T14:05:28;98592.31;;;12.13;62.06
75594;BME280;64176;49.156;7.810;2023-04-24T14:08:12;98575.09;;;12.07;61.76
75594;BME280;64176;49.156;7.810;2023-04-24T14:10:56;98571.88;;;12.59;62.06
75594;BME280;64176;49.156;7.810;2023-04-24T14:13:41;98563.72;;;12.82;60.74
75594;BME280;64176;49.156;7.810;2023-04-24T14:16:25;98560.22;;;12.86;59.72
75594;BME280;64176;49.156;7.810;2023-04-24T14:19:09;98557.09;;;11.95;58.41
75594;BME280;64176;49.156;7.810;2023-04-24T14:21:53;98535.31;;;12.14;59.00
75594;BME280;64176;49.156;7.810;2023-04-24T14:24:39;98567.84;;;12.35;59.29
75594;BME280;64176;49.156;7.810;2023-04-24T14:27:24;98555.69;;;12.40;59.89
75594;BME280;64176;49.156;7.810;2023-04-24T14:30:09;98566.22;;;12.26;59.37
75594;BME280;64176;49.156;7.810;2023-04-24T14:32:53;98570.38;;;12.39;59.25
75594;BME280;64176;49.156;7.810;2023-04-24T14:35:37;98565.97;;;12.46;58.81
75594;BME280;64176;49.156;7.810;2023-04-24T14:38:27;98569.75;;;12.19;58.61
75594;BME280;64176;49.156;7.810;2023-04-24T14:41:11;98572.47;;;12.09;59.22
75594;BME280;64176;49.156;7.810;2023-04-24T14:43:55;98581.47;;;11.76;58.42
75594;BME280;64176;49.156;7.810;2023-04-24T14:46:39;98583.25;;;11.67;58.99
75594;BME280;64176;49.156;7.810;2023-04-24T14:49:23;98581.66;;;11.56;59.12
75594;BME280;64176;49.156;7.810;2023-04-24T14:52:08;98588.69;;;11.40;61.09
75594;BME280;64176;49.156;7.810;2023-04-24T14:54:51;98591.31;;;11.36;62.37
75594;BME280;64176;49.156;7.810;2023-04-24T14:57:35;98594.00;;;11.22;64.08
75594;BME280;64176;49.156;7.810;2023-04-24T15:00:22;98586.19;;;11.28;64.43